createdAt,value
2017-08-06T00:00:25.289Z,992.57
2017-08-06T00:01:22.560Z,992.62
2017-08-06T00:02:19.800Z,992.61
2017-08-06T00:03:17.080Z,992.70
2017-08-06T00:04:14.310Z,992.67
2017-08-06T00:05:11.577Z,992.67
2017-08-06T00:06:08.801Z,992.65
2017-08-06T00:07:06.061Z,992.66
2017-08-06T00:08:03.284Z,992.69
2017-08-06T00:09:00.583Z,992.72
2017-08-06T00:09:57.855Z,992.74
2017-08-06T00:10:55.112Z,992.67
2017-08-06T00:11:52.350Z,992.68
2017-08-06T00:12:49.616Z,992.64
2017-08-06T00:13:46.876Z,992.70
2017-08-06T00:14:44.121Z,992.72
2017-08-06T00:15:41.359Z,992.70
2017-08-06T00:16:38.728Z,992.67
2017-08-06T00:17:35.970Z,992.78
2017-08-06T00:18:33.248Z,992.78
2017-08-06T00:19:30.504Z,992.75
2017-08-06T00:20:27.761Z,992.81
2017-08-06T00:21:24.996Z,992.79
2017-08-06T00:22:22.289Z,992.69
2017-08-06T00:23:19.531Z,992.78
2017-08-06T00:24:16.884Z,992.78
2017-08-06T00:25:14.125Z,992.80
2017-08-06T00:26:11.383Z,992.83
2017-08-06T00:27:08.632Z,992.83
2017-08-06T00:28:05.897Z,992.85
2017-08-06T00:29:03.140Z,992.78
2017-08-06T00:30:00.409Z,992.78
2017-08-06T00:30:57.653Z,992.82
2017-08-06T00:31:54.924Z,992.85
2017-08-06T00:32:52.156Z,992.81
2017-08-06T00:33:49.400Z,992.73
2017-08-06T00:34:46.649Z,992.77
2017-08-06T00:35:43.900Z,992.82
2017-08-06T00:36:41.135Z,992.81
2017-08-06T00:37:38.397Z,992.93
2017-08-06T00:38:35.637Z,992.87
2017-08-06T00:39:32.911Z,992.79
2017-08-06T00:40:30.133Z,992.84
2017-08-06T00:41:27.411Z,992.86
2017-08-06T00:42:24.656Z,992.87
2017-08-06T00:43:21.928Z,992.84
2017-08-06T00:44:19.181Z,992.87
2017-08-06T00:45:16.431Z,992.95
2017-08-06T00:46:13.672Z,992.90
2017-08-06T00:47:10.931Z,992.86
2017-08-06T00:48:08.181Z,992.91
2017-08-06T00:49:05.445Z,992.88
2017-08-06T00:50:02.692Z,992.79
2017-08-06T00:50:59.943Z,992.87
2017-08-06T00:51:57.177Z,992.83
2017-08-06T00:52:54.438Z,992.88
2017-08-06T00:53:51.673Z,992.87
2017-08-06T00:54:48.956Z,992.87
2017-08-06T00:55:46.185Z,992.87
2017-08-06T00:56:43.447Z,992.85
2017-08-06T00:57:40.656Z,992.86
2017-08-06T00:58:37.944Z,992.88
2017-08-06T00:59:35.205Z,992.89
2017-08-06T01:00:32.472Z,992.90
2017-08-06T01:01:29.731Z,992.93
2017-08-06T01:02:27.025Z,992.88
2017-08-06T01:03:24.268Z,992.92
2017-08-06T01:04:21.525Z,992.96
2017-08-06T01:05:18.784Z,992.89
2017-08-06T01:06:16.032Z,992.86
2017-08-06T01:07:13.269Z,992.96
2017-08-06T01:08:10.513Z,993.00
2017-08-06T01:09:07.752Z,992.97
2017-08-06T01:10:05.016Z,992.94
2017-08-06T01:11:02.244Z,992.93
2017-08-06T01:11:59.496Z,992.93
2017-08-06T01:12:56.716Z,992.96
2017-08-06T01:13:53.981Z,993.02
2017-08-06T01:14:51.228Z,992.95
2017-08-06T01:15:48.528Z,992.97
2017-08-06T01:16:45.765Z,993.02
2017-08-06T01:17:43.008Z,992.98
2017-08-06T01:18:40.252Z,992.97
2017-08-06T01:19:37.506Z,993.05
2017-08-06T01:20:34.757Z,993.04
2017-08-06T01:21:32.016Z,993.03
2017-08-06T01:22:29.236Z,993.03
2017-08-06T01:23:26.480Z,993.04
2017-08-06T01:24:23.699Z,993.06
2017-08-06T01:25:20.980Z,993.02
2017-08-06T01:26:18.204Z,993.02
2017-08-06T01:27:15.445Z,993.05
2017-08-06T01:28:12.669Z,993.12
2017-08-06T01:29:09.936Z,993.11
2017-08-06T01:30:07.159Z,993.12
2017-08-06T01:31:04.445Z,993.10
2017-08-06T01:32:01.741Z,993.10
2017-08-06T01:32:59.149Z,993.11
2017-08-06T01:33:56.376Z,993.19
2017-08-06T01:34:53.729Z,993.11
2017-08-06T01:35:51.076Z,993.10
2017-08-06T01:36:48.335Z,993.11
2017-08-06T01:37:45.552Z,993.11
2017-08-06T01:38:42.932Z,993.09
2017-08-06T01:39:40.500Z,993.01
2017-08-06T01:40:37.775Z,993.07
2017-08-06T01:41:34.989Z,993.11
2017-08-06T01:42:32.248Z,993.13
2017-08-06T01:43:29.477Z,993.21
2017-08-06T01:44:26.740Z,993.21
2017-08-06T01:45:23.987Z,993.19
2017-08-06T01:46:21.256Z,993.16
2017-08-06T01:47:18.477Z,993.20
2017-08-06T01:48:15.721Z,993.18
2017-08-06T01:49:12.944Z,993.18
2017-08-06T01:50:10.196Z,993.18
2017-08-06T01:51:07.433Z,993.12
2017-08-06T01:52:04.678Z,993.18
2017-08-06T01:53:01.903Z,993.18
2017-08-06T01:53:59.168Z,993.16
2017-08-06T01:54:56.425Z,993.15
2017-08-06T01:55:53.701Z,993.13
2017-08-06T01:56:50.929Z,993.21
2017-08-06T01:57:48.174Z,993.19
2017-08-06T01:58:45.401Z,993.22
2017-08-06T01:59:42.644Z,993.21
2017-08-06T02:00:39.887Z,993.21
2017-08-06T02:01:37.144Z,993.12
2017-08-06T02:02:34.359Z,993.22
2017-08-06T02:03:31.625Z,993.24
2017-08-06T02:04:28.852Z,993.25
2017-08-06T02:05:26.112Z,993.22
2017-08-06T02:06:23.381Z,993.21
2017-08-06T02:07:20.644Z,993.23
2017-08-06T02:08:17.868Z,993.23
2017-08-06T02:09:15.134Z,993.20
2017-08-06T02:10:12.368Z,993.23
2017-08-06T02:11:09.629Z,993.19
2017-08-06T02:12:06.852Z,993.25
2017-08-06T02:13:04.114Z,993.24
2017-08-06T02:14:01.357Z,993.25
2017-08-06T02:14:58.608Z,993.26
2017-08-06T02:15:55.833Z,993.29
2017-08-06T02:16:53.111Z,993.24
2017-08-06T02:17:50.351Z,993.28
2017-08-06T02:18:47.604Z,993.31
2017-08-06T02:19:44.837Z,993.29
2017-08-06T02:20:42.191Z,993.27
2017-08-06T02:21:39.424Z,993.26
2017-08-06T02:22:37.069Z,993.34
2017-08-06T02:23:34.296Z,993.25
2017-08-06T02:24:31.540Z,993.29
2017-08-06T02:25:28.773Z,993.34
2017-08-06T02:26:26.032Z,993.30
2017-08-06T02:27:23.288Z,993.38
2017-08-06T02:28:20.577Z,993.31
2017-08-06T02:29:17.826Z,993.35
2017-08-06T02:30:15.090Z,993.37
2017-08-06T02:31:12.432Z,993.47
2017-08-06T02:32:09.706Z,993.43
2017-08-06T02:33:06.929Z,993.44
2017-08-06T02:34:04.189Z,993.50
2017-08-06T02:35:01.472Z,993.55
2017-08-06T02:35:58.738Z,993.52
2017-08-06T02:36:55.993Z,993.57
2017-08-06T02:37:53.250Z,993.54
2017-08-06T02:38:50.488Z,993.53
2017-08-06T02:39:47.736Z,993.55
2017-08-06T02:40:44.972Z,993.59
2017-08-06T02:41:42.220Z,993.62
2017-08-06T02:42:39.461Z,993.58
2017-08-06T02:43:36.705Z,993.68
2017-08-06T02:44:33.929Z,993.62
2017-08-06T02:45:31.193Z,993.64
2017-08-06T02:46:28.427Z,993.68
2017-08-06T02:47:25.695Z,993.66
2017-08-06T02:48:22.932Z,993.65
2017-08-06T02:49:20.183Z,993.71
2017-08-06T02:50:17.417Z,993.63
2017-08-06T02:51:14.672Z,993.62
2017-08-06T02:52:11.929Z,993.73
2017-08-06T02:53:09.177Z,993.66
2017-08-06T02:54:06.396Z,993.76
2017-08-06T02:55:03.657Z,993.70
2017-08-06T02:56:00.917Z,993.67
2017-08-06T02:56:58.188Z,993.77
2017-08-06T02:57:55.438Z,993.70
2017-08-06T02:58:52.988Z,993.69
2017-08-06T02:59:50.220Z,993.72
2017-08-06T03:00:47.484Z,993.70
2017-08-06T03:01:44.716Z,993.72
2017-08-06T03:02:41.992Z,993.75
2017-08-06T03:03:39.208Z,993.75
2017-08-06T03:04:36.473Z,993.69
2017-08-06T03:05:33.696Z,993.70
2017-08-06T03:06:30.957Z,993.75
2017-08-06T03:07:28.191Z,993.72
2017-08-06T03:08:25.464Z,993.72
2017-08-06T03:09:22.695Z,993.66
2017-08-06T03:10:19.976Z,993.68
2017-08-06T03:11:17.200Z,993.73
2017-08-06T03:12:14.468Z,993.76
2017-08-06T03:13:11.720Z,993.82
2017-08-06T03:14:08.976Z,993.75
2017-08-06T03:15:06.212Z,993.83
2017-08-06T03:16:03.468Z,993.77
2017-08-06T03:17:00.704Z,993.75
2017-08-06T03:17:57.992Z,993.78
2017-08-06T03:18:55.229Z,993.76
2017-08-06T03:19:52.492Z,993.82
2017-08-06T03:20:49.720Z,993.80
2017-08-06T03:21:46.981Z,993.76
2017-08-06T03:22:44.240Z,993.78
2017-08-06T03:23:41.516Z,993.81
2017-08-06T03:24:38.745Z,993.73
2017-08-06T03:25:36.050Z,993.81
2017-08-06T03:26:33.334Z,993.74
2017-08-06T03:27:30.593Z,993.82
2017-08-06T03:28:27.841Z,993.81
2017-08-06T03:29:25.100Z,993.81
2017-08-06T03:30:22.348Z,993.80
2017-08-06T03:31:19.634Z,993.78
2017-08-06T03:32:16.880Z,993.80
2017-08-06T03:33:14.158Z,993.84
2017-08-06T03:34:11.389Z,993.86
2017-08-06T03:35:08.657Z,993.89
2017-08-06T03:36:05.893Z,993.84
2017-08-06T03:37:03.168Z,993.87
2017-08-06T03:38:00.396Z,993.91
2017-08-06T03:38:57.671Z,993.91
2017-08-06T03:39:54.903Z,993.94
2017-08-06T03:40:52.156Z,993.90
2017-08-06T03:41:49.400Z,993.92
2017-08-06T03:42:46.656Z,993.95
2017-08-06T03:43:43.900Z,993.95
2017-08-06T03:44:41.172Z,994.01
2017-08-06T03:45:38.404Z,993.96
2017-08-06T03:46:35.676Z,994.01
2017-08-06T03:47:32.908Z,993.96
2017-08-06T03:48:30.172Z,993.97
2017-08-06T03:49:27.429Z,993.94
2017-08-06T03:50:24.696Z,993.97
2017-08-06T03:51:21.940Z,993.96
2017-08-06T03:52:19.210Z,994.01
2017-08-06T03:53:16.448Z,993.94
2017-08-06T03:54:13.720Z,993.95
2017-08-06T03:55:10.940Z,993.99
2017-08-06T03:56:08.192Z,993.93
2017-08-06T03:57:05.421Z,993.98
2017-08-06T03:58:02.679Z,993.99
2017-08-06T03:58:59.929Z,994.03
2017-08-06T03:59:57.201Z,993.93
2017-08-06T04:00:54.468Z,994.02
2017-08-06T04:01:51.717Z,993.97
2017-08-06T04:02:48.942Z,994.04
2017-08-06T04:03:46.566Z,994.02
2017-08-06T04:04:43.842Z,994.00
2017-08-06T04:05:41.100Z,994.00
2017-08-06T04:06:38.344Z,994.00
2017-08-06T04:07:35.604Z,994.04
2017-08-06T04:08:32.853Z,994.05
2017-08-06T04:09:30.130Z,994.03
2017-08-06T04:10:27.360Z,994.05
2017-08-06T04:11:24.888Z,994.03
2017-08-06T04:12:22.137Z,994.05
2017-08-06T04:13:19.391Z,994.10
2017-08-06T04:14:16.668Z,994.05
2017-08-06T04:15:13.937Z,993.96
2017-08-06T04:16:11.196Z,994.03
2017-08-06T04:17:08.464Z,993.97
2017-08-06T04:18:05.685Z,994.05
2017-08-06T04:19:02.948Z,993.99
2017-08-06T04:20:00.196Z,994.06
2017-08-06T04:20:57.460Z,994.10
2017-08-06T04:21:54.719Z,994.12
2017-08-06T04:22:51.976Z,994.11
2017-08-06T04:23:49.248Z,994.05
2017-08-06T04:24:46.534Z,994.09
2017-08-06T04:25:43.774Z,994.13
2017-08-06T04:26:41.085Z,994.21
2017-08-06T04:27:38.368Z,994.16
2017-08-06T04:28:35.633Z,994.14
2017-08-06T04:29:33.616Z,994.14
2017-08-06T04:30:30.887Z,994.14
2017-08-06T04:31:28.119Z,994.19
2017-08-06T04:32:25.380Z,994.26
2017-08-06T04:33:22.620Z,994.21
2017-08-06T04:34:19.879Z,994.29
2017-08-06T04:35:17.137Z,994.25
2017-08-06T04:36:14.389Z,994.28
2017-08-06T04:37:11.635Z,994.28
2017-08-06T04:38:08.901Z,994.34
2017-08-06T04:39:06.135Z,994.35
2017-08-06T04:40:03.696Z,994.33
2017-08-06T04:41:00.924Z,994.32
2017-08-06T04:41:58.188Z,994.39
2017-08-06T04:42:55.427Z,994.42
2017-08-06T04:43:52.692Z,994.41
2017-08-06T04:44:49.938Z,994.42
2017-08-06T04:45:47.233Z,994.44
2017-08-06T04:46:44.461Z,994.43
2017-08-06T04:47:41.724Z,994.42
2017-08-06T04:48:38.979Z,994.46
2017-08-06T04:49:36.249Z,994.45
2017-08-06T04:50:33.500Z,994.43
2017-08-06T04:51:30.761Z,994.41
2017-08-06T04:52:28.000Z,994.42
2017-08-06T04:53:25.260Z,994.46
2017-08-06T04:54:22.511Z,994.40
2017-08-06T04:55:19.789Z,994.46
2017-08-06T04:56:17.036Z,994.46
2017-08-06T04:57:14.298Z,994.51
2017-08-06T04:58:11.548Z,994.47
2017-08-06T04:59:08.807Z,994.55
2017-08-06T05:00:06.028Z,994.52
2017-08-06T05:01:03.333Z,994.45
2017-08-06T05:02:00.580Z,994.56
2017-08-06T05:02:57.845Z,994.50
2017-08-06T05:03:55.076Z,994.52
2017-08-06T05:04:52.327Z,994.46
2017-08-06T05:05:49.588Z,994.52
2017-08-06T05:06:46.841Z,994.59
2017-08-06T05:07:44.093Z,994.58
2017-08-06T05:08:41.353Z,994.54
2017-08-06T05:09:38.595Z,994.51
2017-08-06T05:10:35.852Z,994.61
2017-08-06T05:11:33.095Z,994.61
2017-08-06T05:12:30.352Z,994.55
2017-08-06T05:13:27.598Z,994.56
2017-08-06T05:14:24.910Z,994.55
2017-08-06T05:15:22.155Z,994.58
2017-08-06T05:16:19.434Z,994.52
2017-08-06T05:17:16.668Z,994.62
2017-08-06T05:18:13.933Z,994.58
2017-08-06T05:19:11.174Z,994.63
2017-08-06T05:20:08.416Z,994.62
2017-08-06T05:21:05.665Z,994.60
2017-08-06T05:22:02.921Z,994.61
2017-08-06T05:23:00.161Z,994.61
2017-08-06T05:23:57.420Z,994.65
2017-08-06T05:24:54.648Z,994.65
2017-08-06T05:25:51.919Z,994.65
2017-08-06T05:26:49.189Z,994.65
2017-08-06T05:27:46.433Z,994.67
2017-08-06T05:28:43.668Z,994.61
2017-08-06T05:29:40.925Z,994.65
2017-08-06T05:30:38.147Z,994.69
2017-08-06T05:31:35.448Z,994.68
2017-08-06T05:32:32.958Z,994.69
2017-08-06T05:33:30.410Z,994.76
2017-08-06T05:34:27.656Z,994.73
2017-08-06T05:35:24.917Z,994.69
2017-08-06T05:36:22.332Z,994.69
2017-08-06T05:37:19.595Z,994.68
2017-08-06T05:38:16.935Z,994.68
2017-08-06T05:39:14.474Z,994.72
2017-08-06T05:40:12.108Z,994.66
2017-08-06T05:41:09.490Z,994.77
2017-08-06T05:42:06.865Z,994.75
2017-08-06T05:43:04.268Z,994.76
2017-08-06T05:44:01.519Z,994.81
2017-08-06T05:44:58.916Z,994.79
2017-08-06T05:45:56.160Z,994.82
2017-08-06T05:46:53.513Z,994.84
2017-08-06T05:47:50.887Z,994.85
2017-08-06T05:48:48.149Z,994.82
2017-08-06T05:49:45.401Z,994.83
2017-08-06T05:50:42.671Z,994.83
2017-08-06T05:51:39.951Z,994.85
2017-08-06T05:52:37.283Z,994.91
2017-08-06T05:53:34.571Z,994.89
2017-08-06T05:54:31.861Z,994.85
2017-08-06T05:55:29.106Z,994.93
2017-08-06T05:56:26.515Z,994.93
2017-08-06T05:57:23.844Z,994.89
2017-08-06T05:58:21.124Z,994.93
2017-08-06T05:59:18.377Z,994.95
2017-08-06T06:00:15.684Z,994.96
2017-08-06T06:01:12.924Z,995.05
2017-08-06T06:02:10.209Z,995.06
2017-08-06T06:03:07.456Z,995.00
2017-08-06T06:04:05.008Z,995.00
2017-08-06T06:05:02.346Z,995.01
2017-08-06T06:05:59.824Z,995.01
2017-08-06T06:06:57.289Z,995.01
2017-08-06T06:07:54.572Z,995.08
2017-08-06T06:08:51.820Z,995.09
2017-08-06T06:09:49.073Z,995.12
2017-08-06T06:10:46.402Z,995.08
2017-08-06T06:11:43.767Z,995.11
2017-08-06T06:12:41.201Z,995.08
2017-08-06T06:13:38.868Z,995.03
2017-08-06T06:14:36.264Z,995.08
2017-08-06T06:15:33.747Z,995.12
2017-08-06T06:16:31.138Z,995.15
2017-08-06T06:17:28.927Z,995.11
2017-08-06T06:18:26.401Z,995.08
2017-08-06T06:19:23.950Z,994.97
2017-08-06T06:20:21.322Z,995.09
2017-08-06T06:21:18.641Z,995.14
2017-08-06T06:22:16.143Z,995.07
2017-08-06T06:23:13.545Z,995.08
2017-08-06T06:24:10.798Z,995.07
2017-08-06T06:25:08.100Z,995.00
2017-08-06T06:26:05.387Z,995.06
2017-08-06T06:27:02.684Z,995.02
2017-08-06T06:27:59.936Z,994.95
2017-08-06T06:28:57.192Z,995.01
2017-08-06T06:29:54.428Z,994.97
2017-08-06T06:30:51.692Z,995.04
2017-08-06T06:31:48.926Z,995.07
2017-08-06T06:32:46.221Z,995.08
2017-08-06T06:33:43.533Z,995.04
2017-08-06T06:34:40.808Z,995.11
2017-08-06T06:35:38.040Z,995.10
2017-08-06T06:36:35.309Z,995.15
2017-08-06T06:37:32.554Z,995.16
2017-08-06T06:38:29.840Z,995.20
2017-08-06T06:39:27.064Z,995.13
2017-08-06T06:40:24.325Z,995.16
2017-08-06T06:41:21.564Z,995.15
2017-08-06T06:42:18.832Z,995.16
2017-08-06T06:43:17.059Z,995.15
2017-08-06T06:44:14.326Z,995.15
2017-08-06T06:45:11.552Z,995.20
2017-08-06T06:46:08.828Z,995.17
2017-08-06T06:47:06.056Z,995.20
2017-08-06T06:48:03.324Z,995.15
2017-08-06T06:49:00.578Z,995.13
2017-08-06T06:49:57.824Z,995.15
2017-08-06T06:50:55.076Z,995.16
2017-08-06T06:51:52.329Z,995.14
2017-08-06T06:52:49.576Z,995.18
2017-08-06T06:53:47.897Z,995.14
2017-08-06T06:54:45.136Z,995.15
2017-08-06T06:55:42.404Z,995.20
2017-08-06T06:56:39.653Z,995.17
2017-08-06T06:57:36.952Z,995.23
2017-08-06T06:58:34.243Z,995.18
2017-08-06T06:59:31.513Z,995.10
2017-08-06T07:00:28.767Z,995.22
2017-08-06T07:01:26.031Z,995.21
2017-08-06T07:02:23.267Z,995.16
2017-08-06T07:03:20.549Z,995.11
2017-08-06T07:04:17.804Z,995.22
2017-08-06T07:05:15.356Z,995.20
2017-08-06T07:06:12.772Z,995.19
2017-08-06T07:07:10.032Z,995.26
2017-08-06T07:08:07.284Z,995.18
2017-08-06T07:09:04.580Z,995.21
2017-08-06T07:10:01.821Z,995.25
2017-08-06T07:10:59.068Z,995.25
2017-08-06T07:11:56.309Z,995.21
2017-08-06T07:12:53.568Z,995.15
2017-08-06T07:13:50.837Z,995.19
2017-08-06T07:14:48.128Z,995.21
2017-08-06T07:15:45.365Z,995.18
2017-08-06T07:16:42.611Z,995.28
2017-08-06T07:17:39.844Z,995.24
2017-08-06T07:18:37.111Z,995.30
2017-08-06T07:19:34.356Z,995.29
2017-08-06T07:20:31.617Z,995.32
2017-08-06T07:21:28.856Z,995.32
2017-08-06T07:22:26.113Z,995.39
2017-08-06T07:23:23.366Z,995.35
2017-08-06T07:24:20.637Z,995.36
2017-08-06T07:25:17.877Z,995.38
2017-08-06T07:26:15.207Z,995.38
2017-08-06T07:27:12.480Z,995.36
2017-08-06T07:28:09.738Z,995.35
2017-08-06T07:29:06.968Z,995.37
2017-08-06T07:30:04.256Z,995.38
2017-08-06T07:31:01.492Z,995.43
2017-08-06T07:31:58.745Z,995.37
2017-08-06T07:32:55.977Z,995.39
2017-08-06T07:33:53.238Z,995.37
2017-08-06T07:34:50.494Z,995.40
2017-08-06T07:35:47.756Z,995.38
2017-08-06T07:36:44.985Z,995.45
2017-08-06T07:37:42.251Z,995.38
2017-08-06T07:38:39.481Z,995.36
2017-08-06T07:39:36.761Z,995.38
2017-08-06T07:40:34.004Z,995.42
2017-08-06T07:41:31.264Z,995.34
2017-08-06T07:42:28.497Z,995.35
2017-08-06T07:43:25.768Z,995.32
2017-08-06T07:44:23.601Z,995.38
2017-08-06T07:45:20.880Z,995.38
2017-08-06T07:46:18.104Z,995.35
2017-08-06T07:47:15.413Z,995.37
2017-08-06T07:48:17.773Z,995.40
2017-08-06T07:49:15.101Z,995.36
2017-08-06T07:50:12.361Z,995.47
2017-08-06T07:51:09.616Z,995.42
2017-08-06T07:52:06.857Z,995.41
2017-08-06T07:53:06.147Z,995.40
2017-08-06T07:54:04.409Z,995.41
2017-08-06T07:55:01.656Z,995.43
2017-08-06T07:55:58.932Z,995.41
2017-08-06T07:56:56.185Z,995.40
2017-08-06T07:57:53.455Z,995.43
2017-08-06T07:58:50.745Z,995.44
2017-08-06T07:59:48.017Z,995.45
2017-08-06T08:00:45.288Z,995.52
2017-08-06T08:01:42.573Z,995.51
2017-08-06T08:02:39.835Z,995.52
2017-08-06T08:03:37.109Z,995.51
2017-08-06T08:04:34.337Z,995.45
2017-08-06T08:05:31.759Z,995.51
2017-08-06T08:06:29.004Z,995.45
2017-08-06T08:07:26.276Z,995.49
2017-08-06T08:08:23.500Z,995.50
2017-08-06T08:09:21.000Z,995.40
2017-08-06T08:10:18.264Z,995.48
2017-08-06T08:11:15.532Z,995.47
2017-08-06T08:12:12.764Z,995.53
2017-08-06T08:13:10.016Z,995.55
2017-08-06T08:14:07.253Z,995.54
2017-08-06T08:15:04.516Z,995.57
2017-08-06T08:16:01.764Z,995.52
2017-08-06T08:16:59.028Z,995.50
2017-08-06T08:17:56.252Z,995.53
2017-08-06T08:18:53.509Z,995.44
2017-08-06T08:19:50.753Z,995.48
2017-08-06T08:20:48.053Z,995.41
2017-08-06T08:21:45.682Z,995.41
2017-08-06T08:22:44.282Z,995.46
2017-08-06T08:23:41.585Z,995.43
2017-08-06T08:24:38.836Z,995.49
2017-08-06T08:25:36.132Z,995.49
2017-08-06T08:26:33.445Z,995.51
2017-08-06T08:27:30.676Z,995.54
2017-08-06T08:28:27.928Z,995.55
2017-08-06T08:29:25.164Z,995.46
2017-08-06T08:30:22.417Z,995.59
2017-08-06T08:31:19.676Z,995.56
2017-08-06T08:32:16.930Z,995.43
2017-08-06T08:33:14.181Z,995.54
2017-08-06T08:34:11.781Z,995.53
2017-08-06T08:35:09.033Z,995.55
2017-08-06T08:36:06.312Z,995.50
2017-08-06T08:37:03.536Z,995.52
2017-08-06T08:38:00.788Z,995.54
2017-08-06T08:38:58.077Z,995.48
2017-08-06T08:39:55.371Z,995.48
2017-08-06T08:40:52.608Z,995.53
2017-08-06T08:41:49.946Z,995.47
2017-08-06T08:42:47.185Z,995.48
2017-08-06T08:43:44.466Z,995.47
2017-08-06T08:44:41.864Z,995.50
2017-08-06T08:45:39.181Z,995.46
2017-08-06T08:46:36.501Z,995.50
2017-08-06T08:47:33.820Z,995.43
2017-08-06T08:48:31.207Z,995.50
2017-08-06T08:49:28.667Z,995.53
2017-08-06T08:50:25.924Z,995.51
2017-08-06T08:51:23.252Z,995.45
2017-08-06T08:52:20.505Z,995.51
2017-08-06T08:53:17.788Z,995.45
2017-08-06T08:54:14.996Z,995.46
2017-08-06T08:55:12.264Z,995.46
2017-08-06T08:56:09.500Z,995.45
2017-08-06T08:57:06.805Z,995.43
2017-08-06T08:58:04.069Z,995.49
2017-08-06T08:59:01.329Z,995.46
2017-08-06T08:59:58.553Z,995.51
2017-08-06T09:00:55.812Z,995.49
2017-08-06T09:01:53.084Z,995.57
2017-08-06T09:02:50.368Z,995.55
2017-08-06T09:03:47.596Z,995.53
2017-08-06T09:04:44.843Z,995.48
2017-08-06T09:05:42.064Z,995.49
2017-08-06T09:06:39.372Z,995.48
2017-08-06T09:07:36.621Z,995.38
2017-08-06T09:08:33.980Z,995.47
2017-08-06T09:09:31.498Z,995.47
2017-08-06T09:10:29.356Z,995.48
2017-08-06T09:11:26.600Z,995.42
2017-08-06T09:12:23.879Z,995.44
2017-08-06T09:13:21.088Z,995.41
2017-08-06T09:14:18.352Z,995.44
2017-08-06T09:15:15.580Z,995.35
2017-08-06T09:16:12.848Z,995.38
2017-08-06T09:17:10.108Z,995.38
2017-08-06T09:18:07.357Z,995.35
2017-08-06T09:19:04.577Z,995.33
2017-08-06T09:20:01.932Z,995.34
2017-08-06T09:20:59.184Z,995.37
2017-08-06T09:21:56.484Z,995.35
2017-08-06T09:22:53.730Z,995.36
2017-08-06T09:23:51.105Z,995.33
2017-08-06T09:24:48.352Z,995.38
2017-08-06T09:25:45.661Z,995.37
2017-08-06T09:26:42.959Z,995.38
2017-08-06T09:27:40.268Z,995.31
2017-08-06T09:28:37.520Z,995.34
2017-08-06T09:29:34.786Z,995.28
2017-08-06T09:30:32.020Z,995.36
2017-08-06T09:31:29.288Z,995.30
2017-08-06T09:32:26.527Z,995.28
2017-08-06T09:33:23.805Z,995.35
2017-08-06T09:34:21.200Z,995.33
2017-08-06T09:35:18.692Z,995.32
2017-08-06T09:36:16.165Z,995.35
2017-08-06T09:37:13.612Z,995.27
2017-08-06T09:38:10.885Z,995.30
2017-08-06T09:39:08.251Z,995.32
2017-08-06T09:40:05.521Z,995.33
2017-08-06T09:41:02.917Z,995.36
2017-08-06T09:42:00.148Z,995.27
2017-08-06T09:42:57.488Z,995.30
2017-08-06T09:43:54.717Z,995.31
2017-08-06T09:44:51.997Z,995.24
2017-08-06T09:45:49.228Z,995.35
2017-08-06T09:46:46.618Z,995.28
2017-08-06T09:47:43.949Z,995.35
2017-08-06T09:48:41.213Z,995.32
2017-08-06T09:49:38.448Z,995.25
2017-08-06T09:50:35.780Z,995.19
2017-08-06T09:51:33.184Z,995.22
2017-08-06T09:52:30.452Z,995.26
2017-08-06T09:53:27.769Z,995.21
2017-08-06T09:54:25.044Z,995.25
2017-08-06T09:55:22.445Z,995.23
2017-08-06T09:56:19.705Z,995.20
2017-08-06T09:57:16.951Z,995.23
2017-08-06T09:58:14.674Z,995.15
2017-08-06T09:59:12.250Z,995.15
2017-08-06T10:00:09.704Z,995.20
2017-08-06T10:01:07.119Z,995.15
2017-08-06T10:02:04.368Z,995.18
2017-08-06T10:03:01.653Z,995.19
2017-08-06T10:03:58.961Z,995.13
2017-08-06T10:04:56.374Z,995.18
2017-08-06T10:05:53.630Z,995.23
2017-08-06T10:06:50.936Z,995.22
2017-08-06T10:07:48.192Z,995.20
2017-08-06T10:08:45.446Z,995.24
2017-08-06T10:09:42.720Z,995.21
2017-08-06T10:10:40.073Z,995.18
2017-08-06T10:11:37.452Z,995.17
2017-08-06T10:12:34.680Z,995.23
2017-08-06T10:13:32.082Z,995.18
2017-08-06T10:14:29.346Z,995.30
2017-08-06T10:15:26.600Z,995.19
2017-08-06T10:16:23.860Z,995.19
2017-08-06T10:17:21.145Z,995.19
2017-08-06T10:18:18.383Z,995.15
2017-08-06T10:19:15.661Z,995.17
2017-08-06T10:20:13.036Z,995.13
2017-08-06T10:21:10.281Z,995.13
2017-08-06T10:22:07.513Z,995.19
2017-08-06T10:23:04.772Z,995.14
2017-08-06T10:24:02.017Z,995.16
2017-08-06T10:24:59.276Z,995.14
2017-08-06T10:25:56.545Z,995.05
2017-08-06T10:26:53.837Z,995.12
2017-08-06T10:27:51.072Z,995.09
2017-08-06T10:28:48.344Z,995.14
2017-08-06T10:29:45.576Z,995.10
2017-08-06T10:30:42.824Z,995.04
2017-08-06T10:31:40.160Z,995.10
2017-08-06T10:32:37.691Z,995.03
2017-08-06T10:33:34.936Z,995.10
2017-08-06T10:34:32.229Z,995.02
2017-08-06T10:35:29.518Z,994.99
2017-08-06T10:36:26.866Z,995.03
2017-08-06T10:37:24.137Z,995.02
2017-08-06T10:38:21.426Z,994.92
2017-08-06T10:39:18.683Z,994.88
2017-08-06T10:40:16.052Z,994.88
2017-08-06T10:41:13.285Z,994.92
2017-08-06T10:42:10.539Z,994.89
2017-08-06T10:43:07.769Z,994.93
2017-08-06T10:44:05.055Z,994.96
2017-08-06T10:45:02.312Z,994.92
2017-08-06T10:45:59.564Z,994.86
2017-08-06T10:46:56.789Z,994.86
2017-08-06T10:47:54.049Z,994.87
2017-08-06T10:48:51.269Z,994.80
2017-08-06T10:49:48.553Z,994.90
2017-08-06T10:50:45.800Z,994.80
2017-08-06T10:51:43.056Z,994.79
2017-08-06T10:52:40.293Z,994.74
2017-08-06T10:53:37.622Z,994.74
2017-08-06T10:54:34.909Z,994.78
2017-08-06T10:55:32.170Z,994.81
2017-08-06T10:56:29.407Z,994.89
2017-08-06T10:57:26.661Z,994.81
2017-08-06T10:58:23.913Z,994.76
2017-08-06T10:59:21.202Z,994.85
2017-08-06T11:00:18.475Z,994.74
2017-08-06T11:01:15.751Z,994.80
2017-08-06T11:02:13.012Z,994.80
2017-08-06T11:03:10.265Z,994.72
2017-08-06T11:04:07.500Z,994.76
2017-08-06T11:05:04.785Z,994.73
2017-08-06T11:06:02.036Z,994.74
2017-08-06T11:06:59.548Z,994.72
2017-08-06T11:07:57.156Z,994.71
2017-08-06T11:08:54.406Z,994.73
2017-08-06T11:09:51.645Z,994.72
2017-08-06T11:10:48.896Z,994.67
2017-08-06T11:11:46.140Z,994.63
2017-08-06T11:12:43.408Z,994.68
2017-08-06T11:13:40.668Z,994.69
2017-08-06T11:14:37.996Z,994.63
2017-08-06T11:15:35.260Z,994.64
2017-08-06T11:16:32.533Z,994.62
2017-08-06T11:17:29.760Z,994.69
2017-08-06T11:18:27.404Z,994.63
2017-08-06T11:19:24.651Z,994.67
2017-08-06T11:20:22.880Z,994.62
2017-08-06T11:21:20.104Z,994.59
2017-08-06T11:22:17.357Z,994.63
2017-08-06T11:23:14.576Z,994.64
2017-08-06T11:24:11.844Z,994.67
2017-08-06T11:25:09.109Z,994.69
2017-08-06T11:26:06.445Z,994.62
2017-08-06T11:27:03.757Z,994.62
2017-08-06T11:28:01.113Z,994.71
2017-08-06T11:28:58.371Z,994.63
2017-08-06T11:29:55.645Z,994.65
2017-08-06T11:30:52.934Z,994.57
2017-08-06T11:31:50.201Z,994.65
2017-08-06T11:32:47.490Z,994.62
2017-08-06T11:33:44.760Z,994.57
2017-08-06T11:34:41.994Z,994.64
2017-08-06T11:35:39.288Z,994.64
2017-08-06T11:36:36.533Z,994.55
2017-08-06T11:37:33.813Z,994.59
2017-08-06T11:38:31.048Z,994.62
2017-08-06T11:39:28.328Z,994.60
2017-08-06T11:40:25.660Z,994.59
2017-08-06T11:41:22.961Z,994.66
2017-08-06T11:42:20.233Z,994.63
2017-08-06T11:43:17.488Z,994.70
2017-08-06T11:44:14.752Z,994.61
2017-08-06T11:45:12.029Z,994.61
2017-08-06T11:46:09.289Z,994.62
2017-08-06T11:47:06.581Z,994.61
2017-08-06T11:48:03.812Z,994.60
2017-08-06T11:49:01.097Z,994.56
2017-08-06T11:49:58.321Z,994.59
2017-08-06T11:50:55.648Z,994.65
2017-08-06T11:51:52.889Z,994.57
2017-08-06T11:52:50.190Z,994.59
2017-08-06T11:53:47.441Z,994.57
2017-08-06T11:54:44.705Z,994.53